Time,TemperatureF,DewpointF,PressureIn,WindDirection,WindDirectionDegrees,WindSpeedMPH,WindSpeedGustMPH,Humidity,HourlyPrecipIn,Conditions,Clouds,dailyrainin,SolarRadiationWatts/m^2,SoftwareType,DateUTC
2013-02-28 00:00:00,36.1,32.3,30.05,South,190,3.0,3.0,86,0.00,,,0.00,0,Wunderground v.1.15,2013-02-28 08:00:00,
2013-02-28 00:10:00,36.1,32.3,30.05,WSW,242,0.0,0.0,86,0.00,,,0.00,0,Wunderground v.1.15,2013-02-28 08:10:00,
2013-02-28 00:20:00,36.0,32.2,30.04,West,260,0.0,0.0,86,0.00,,,0.00,0,Wunderground v.1.15,2013-02-28 08:20:00,
2013-02-28 00:30:00,36.3,32.2,30.04,WSW,258,0.0,0.0,85,0.00,,,0.00,0,Wunderground v.1.15,2013-02-28 08:30:00,
2013-02-28 00:40:00,36.5,32.4,30.04,WSW,258,0.0,0.0,85,0.00,,,0.00,0,Wunderground v.1.15,2013-02-28 08:40:00,
2013-02-28 00:50:00,36.4,32.3,30.04,West,259,0.0,0.0,85,0.00,,,0.00,0,Wunderground v.1.15,2013-02-28 08:50:00,
2013-02-28 01:00:00,36.3,32.2,30.05,West,259,0.0,0.0,85,0.00,,,0.00,0,Wunderground v.1.15,2013-02-28 09:00:00,
2013-02-28 01:10:00,36.1,32.0,30.04,West,259,0.0,0.0,85,0.00,,,0.00,0,Wunderground v.1.15,2013-02-28 09:10:00,
2013-02-28 01:20:00,36.2,32.7,30.04,WSW,258,0.0,0.0,87,0.00,,,0.00,0,Wunderground v.1.15,2013-02-28 09:20:00,
2013-02-28 01:30:00,36.0,32.5,30.04,WSW,258,0.0,0.0,87,0.00,,,0.00,0,Wunderground v.1.15,2013-02-28 09:30:00,
2013-02-28 01:40:00,35.7,32.2,30.04,WSW,258,0.0,0.0,87,0.00,,,0.00,0,Wunderground v.1.15,2013-02-28 09:40:00,
2013-02-28 01:50:00,35.7,32.2,30.04,West,259,0.0,0.0,87,0.00,,,0.00,0,Wunderground v.1.15,2013-02-28 09:50:00,
2013-02-28 02:00:00,35.5,32.3,30.04,WSW,255,4.0,4.0,88,0.00,,,0.00,0,Wunderground v.1.15,2013-02-28 10:00:00,
2013-02-28 02:10:00,35.2,32.0,30.03,WSW,251,0.0,0.0,88,0.00,,,0.00,0,Wunderground v.1.15,2013-02-28 10:10:00,
2013-02-28 02:20:00,35.0,31.8,30.04,West,259,3.0,3.0,88,0.00,,,0.00,0,Wunderground v.1.15,2013-02-28 10:20:00,
2013-02-28 02:30:00,35.1,31.9,30.04,West,260,0.0,0.0,88,0.00,,,0.00,0,Wunderground v.1.15,2013-02-28 10:30:00,
2013-02-28 02:40:00,34.8,31.6,30.03,WSW,258,1.0,1.0,88,0.00,,,0.00,0,Wunderground v.1.15,2013-02-28 10:40:00,
2013-02-28 02:50:00,34.3,31.7,30.03,WSW,253,0.0,0.0,90,0.00,,,0.00,0,Wunderground v.1.15,2013-02-28 10:50:00,
2013-02-28 03:01:00,33.9,31.6,30.03,WSW,254,1.0,1.0,91,0.00,,,0.00,0,Wunderground v.1.15,2013-02-28 11:01:00,
2013-02-28 03:10:00,33.4,31.1,30.03,WSW,252,2.0,2.0,91,0.00,,,0.00,0,Wunderground v.1.15,2013-02-28 11:10:00,
2013-02-28 03:20:00,33.3,31.2,30.02,WSW,243,1.0,1.0,92,0.00,,,0.00,0,Wunderground v.1.15,2013-02-28 11:20:00,
2013-02-28 03:30:00,33.4,31.3,30.02,WNW,282,0.0,3.0,92,0.00,,,0.00,0,Wunderground v.1.15,2013-02-28 11:30:00,
2013-02-28 03:40:00,32.7,30.9,30.02,West,280,0.0,0.0,93,0.00,,,0.00,0,Wunderground v.1.15,2013-02-28 11:40:00,
2013-02-28 03:50:00,33.0,31.2,30.02,WSW,254,0.0,0.0,93,0.00,,,0.00,0,Wunderground v.1.15,2013-02-28 11:50:00,
2013-02-28 04:00:00,33.0,31.5,30.02,WSW,254,3.0,3.0,94,0.00,,,0.00,0,Wunderground v.1.15,2013-02-28 12:00:00,
2013-02-28 04:10:00,33.7,32.2,30.02,SW,217,2.0,2.0,94,0.00,,,0.00,0,Wunderground v.1.15,2013-02-28 12:10:00,
2013-02-28 04:20:00,33.7,31.9,30.03,SW,221,0.0,0.0,93,0.00,,,0.00,0,Wunderground v.1.15,2013-02-28 12:20:00,
2013-02-28 04:31:00,33.7,31.9,30.03,SW,221,0.0,0.0,93,0.00,,,0.00,0,Wunderground v.1.15,2013-02-28 12:31:00,
2013-02-28 04:40:00,33.2,31.4,30.03,SW,220,0.0,0.0,93,0.00,,,0.00,0,Wunderground v.1.15,2013-02-28 12:40:00,
2013-02-28 04:50:00,32.8,31.3,30.03,SW,221,2.0,2.0,94,0.00,,,0.00,0,Wunderground v.1.15,2013-02-28 12:50:00,
2013-02-28 05:00:00,33.2,32.2,30.02,SW,219,0.0,0.0,96,0.00,,,0.00,0,Wunderground v.1.15,2013-02-28 13:00:00,
2013-02-28 05:10:00,33.4,31.9,30.03,WSW,247,0.0,0.0,94,0.00,,,0.00,0,Wunderground v.1.15,2013-02-28 13:10:00,
2013-02-28 05:20:00,33.3,31.8,30.03,WSW,247,0.0,0.0,94,0.00,,,0.00,0,Wunderground v.1.15,2013-02-28 13:20:00,
2013-02-28 05:30:00,33.1,31.8,30.03,NNE,21,0.0,0.0,95,0.00,,,0.00,0,Wunderground v.1.15,2013-02-28 13:30:00,
2013-02-28 05:40:00,33.5,32.2,30.04,SW,230,0.0,0.0,95,0.00,,,0.00,0,Wunderground v.1.15,2013-02-28 13:40:00,
2013-02-28 05:50:00,33.5,32.2,30.04,NNW,335,0.0,0.0,95,0.00,,,0.00,0,Wunderground v.1.15,2013-02-28 13:50:00,
2013-02-28 06:01:00,33.7,32.4,30.05,WNW,296,2.0,2.0,95,0.00,,,0.00,0,Wunderground v.1.15,2013-02-28 14:01:00,
2013-02-28 06:10:00,33.7,32.4,30.04,SW,223,0.0,2.0,95,0.00,,,0.00,0,Wunderground v.1.15,2013-02-28 14:10:00,
2013-02-28 06:20:00,32.9,31.9,30.05,WSW,243,2.0,2.0,96,0.00,,,0.00,0,Wunderground v.1.15,2013-02-28 14:20:00,
2013-02-28 06:30:00,32.4,31.6,30.05,South,191,0.0,2.0,97,0.00,,,0.00,0,Wunderground v.1.15,2013-02-28 14:30:00,
2013-02-28 06:40:00,32.4,31.9,30.05,South,190,0.0,0.0,98,0.00,,,0.00,0,Wunderground v.1.15,2013-02-28 14:40:00,
2013-02-28 06:50:00,32.9,32.4,30.05,South,190,0.0,0.0,98,0.00,,,0.00,0,Wunderground v.1.15,2013-02-28 14:50:00,
2013-02-28 07:00:00,32.7,32.5,30.05,South,191,0.0,0.0,99,0.00,,,0.00,0,Wunderground v.1.15,2013-02-28 15:00:00,
2013-02-28 07:10:00,32.7,32.5,30.05,South,191,0.0,0.0,99,0.00,,,0.00,0,Wunderground v.1.15,2013-02-28 15:10:00,
2013-02-28 07:20:00,32.8,32.6,30.06,SW,225,0.0,0.0,99,0.00,,,0.00,0,Wunderground v.1.15,2013-02-28 15:20:00,
2013-02-28 07:30:00,33.2,33.2,30.06,SW,226,2.0,2.0,100,0.00,,,0.00,0,Wunderground v.1.15,2013-02-28 15:30:00,
2013-02-28 07:40:00,33.5,33.2,30.06,SSW,213,0.0,0.0,99,0.00,,,0.00,0,Wunderground v.1.15,2013-02-28 15:40:00,
2013-02-28 07:50:00,33.5,33.2,30.06,SW,215,2.0,2.0,99,0.00,,,0.00,0,Wunderground v.1.15,2013-02-28 15:50:00,
2013-02-28 08:01:00,33.4,33.1,30.07,SSW,211,0.0,0.0,99,0.00,,,0.00,0,Wunderground v.1.15,2013-02-28 16:01:00,
2013-02-28 08:10:00,33.6,33.3,30.07,SSW,211,0.0,0.0,99,0.00,,,0.00,0,Wunderground v.1.15,2013-02-28 16:10:00,
2013-02-28 08:20:00,33.9,33.6,30.07,SSW,211,0.0,0.0,99,0.00,,,0.00,0,Wunderground v.1.15,2013-02-28 16:20:00,
2013-02-28 08:30:00,34.5,34.2,30.08,SSW,212,0.0,0.0,99,0.00,,,0.00,0,Wunderground v.1.15,2013-02-28 16:30:00,
2013-02-28 08:40:00,35.1,34.8,30.08,SSW,212,0.0,0.0,99,0.00,,,0.00,0,Wunderground v.1.15,2013-02-28 16:40:00,
2013-02-28 08:50:00,35.9,35.4,30.08,SSW,212,0.0,0.0,98,0.00,,,0.00,0,Wunderground v.1.15,2013-02-28 16:50:00,
2013-02-28 09:00:00,36.6,36.1,30.08,SSW,208,2.0,2.0,98,0.00,,,0.00,0,Wunderground v.1.15,2013-02-28 17:00:00,
2013-02-28 09:05:00,36.8,36.0,30.09,East,93,0.0,2.0,97,0.00,,,0.00,0,Wunderground v.1.15,2013-02-28 17:05:00,
2013-02-28 09:10:00,37.0,36.0,30.08,East,93,2.0,2.0,96,0.00,,,0.00,0,Wunderground v.1.15,2013-02-28 17:10:00,
2013-02-28 09:20:00,37.6,36.6,30.09,NNE,26,0.0,0.0,96,0.00,,,0.00,0,Wunderground v.1.15,2013-02-28 17:20:00,
2013-02-28 09:30:00,39.0,37.4,30.09,South,175,0.0,0.0,94,0.00,,,0.00,0,Wunderground v.1.15,2013-02-28 17:30:00,
2013-02-28 09:40:00,39.9,38.0,30.09,SW,226,0.0,0.0,93,0.00,,,0.00,0,Wunderground v.1.15,2013-02-28 17:40:00,
2013-02-28 09:50:00,40.9,38.5,30.09,SW,226,0.0,0.0,91,0.00,,,0.00,0,Wunderground v.1.15,2013-02-28 17:50:00,
2013-02-28 10:00:00,41.7,39.3,30.09,West,280,0.0,0.0,91,0.00,,,0.00,0,Wunderground v.1.15,2013-02-28 18:00:00,
2013-02-28 10:10:00,42.7,39.7,30.09,ESE,106,0.0,0.0,89,0.00,,,0.00,0,Wunderground v.1.15,2013-02-28 18:10:00,
2013-02-28 10:20:00,43.7,40.4,30.10,ESE,108,0.0,0.0,88,0.00,,,0.00,0,Wunderground v.1.15,2013-02-28 18:20:00,
2013-02-28 10:35:00,44.4,40.5,30.10,SE,132,3.0,3.0,86,0.00,,,0.00,0,Wunderground v.1.15,2013-02-28 18:35:00,
2013-02-28 10:40:00,44.5,40.6,30.10,ESE,117,2.0,3.0,86,0.00,,,0.00,0,Wunderground v.1.15,2013-02-28 18:40:00,
2013-02-28 10:50:00,45.5,41.6,30.10,ESE,119,0.0,0.0,86,0.00,,,0.00,0,Wunderground v.1.15,2013-02-28 18:50:00,
2013-02-28 11:00:00,46.3,41.7,30.11,SSE,147,2.0,2.0,84,0.00,,,0.00,0,Wunderground v.1.15,2013-02-28 19:00:00,
2013-02-28 11:10:00,48.4,43.2,30.12,SSE,148,4.0,4.0,82,0.00,,,0.00,0,Wunderground v.1.15,2013-02-28 19:10:00,
2013-02-28 11:20:00,49.0,43.1,30.12,ENE,62,2.0,2.0,80,0.00,,,0.00,0,Wunderground v.1.15,2013-02-28 19:20:00,
2013-02-28 11:30:00,49.8,43.9,30.12,WSW,249,9.0,9.0,80,0.00,,,0.00,0,Wunderground v.1.15,2013-02-28 19:30:00,
2013-02-28 11:40:00,50.3,44.0,30.13,WSW,244,7.0,7.0,79,0.00,,,0.00,0,Wunderground v.1.15,2013-02-28 19:40:00,
2013-02-28 11:50:00,50.4,43.8,30.13,South,176,3.0,3.0,78,0.00,,,0.00,0,Wunderground v.1.15,2013-02-28 19:50:00,
2013-02-28 12:01:00,50.6,44.0,30.13,WSW,253,7.0,7.0,78,0.00,,,0.00,0,Wunderground v.1.15,2013-02-28 20:01:00,
2013-02-28 12:10:00,50.8,44.2,30.13,West,266,4.0,8.0,78,0.00,,,0.00,0,Wunderground v.1.15,2013-02-28 20:10:00,
2013-02-28 12:20:00,51.2,44.2,30.13,SW,235,6.0,6.0,77,0.00,,,0.00,0,Wunderground v.1.15,2013-02-28 20:20:00,
2013-02-28 12:30:00,51.5,44.2,30.13,WSW,246,5.0,5.0,76,0.00,,,0.00,0,Wunderground v.1.15,2013-02-28 20:30:00,
2013-02-28 12:40:00,51.6,44.3,30.12,SW,232,7.0,12.0,76,0.00,,,0.00,0,Wunderground v.1.15,2013-02-28 20:40:00,
2013-02-28 12:50:00,51.6,44.6,30.12,WSW,252,10.0,12.0,77,0.00,,,0.00,0,Wunderground v.1.15,2013-02-28 20:50:00,
2013-02-28 13:00:00,51.8,44.5,30.12,West,267,12.0,12.0,76,0.00,,,0.00,0,Wunderground v.1.15,2013-02-28 21:00:00,
2013-02-28 13:10:00,52.6,44.5,30.12,WSW,255,9.0,9.0,74,0.00,,,0.00,0,Wunderground v.1.15,2013-02-28 21:10:00,
2013-02-28 13:20:00,52.5,44.8,30.12,West,260,8.0,8.0,75,0.00,,,0.00,0,Wunderground v.1.15,2013-02-28 21:20:00,
2013-02-28 13:30:00,52.5,44.4,30.13,WSW,258,11.0,11.0,74,0.00,,,0.00,0,Wunderground v.1.15,2013-02-28 21:30:00,
2013-02-28 13:40:00,52.4,44.7,30.13,West,259,3.0,3.0,75,0.00,,,0.00,0,Wunderground v.1.15,2013-02-28 21:40:00,
2013-02-28 13:50:00,52.5,44.8,30.14,WSW,252,8.0,8.0,75,0.00,,,0.00,0,Wunderground v.1.15,2013-02-28 21:50:00,
2013-02-28 14:00:00,52.1,44.8,30.14,WSW,244,7.0,7.0,76,0.00,,,0.00,0,Wunderground v.1.15,2013-02-28 22:00:00,
2013-02-28 14:10:00,52.1,44.8,30.14,West,264,6.0,6.0,76,0.00,,,0.00,0,Wunderground v.1.15,2013-02-28 22:10:00,
2013-02-28 14:20:00,53.4,45.7,30.14,WSW,247,8.0,8.0,75,0.00,,,0.00,0,Wunderground v.1.15,2013-02-28 22:20:00,
2013-02-28 14:31:00,52.4,45.1,30.14,WSW,254,16.0,16.0,76,0.00,,,0.00,0,Wunderground v.1.15,2013-02-28 22:31:00,
2013-02-28 14:40:00,52.6,45.2,30.14,WSW,251,18.0,18.0,76,0.00,,,0.00,0,Wunderground v.1.15,2013-02-28 22:40:00,
2013-02-28 14:50:00,52.2,45.5,30.14,WSW,246,13.0,16.0,78,0.00,,,0.00,0,Wunderground v.1.15,2013-02-28 22:50:00,
2013-02-28 15:00:00,51.8,45.2,30.14,SW,233,13.0,13.0,78,0.00,,,0.00,0,Wunderground v.1.15,2013-02-28 23:00:00,
2013-02-28 15:10:00,51.8,45.2,30.14,WSW,249,21.0,21.0,78,0.00,,,0.00,0,Wunderground v.1.15,2013-02-28 23:10:00,
2013-02-28 15:20:00,52.1,45.4,30.13,WSW,256,15.0,15.0,78,0.00,,,0.00,0,Wunderground v.1.15,2013-02-28 23:20:00,
2013-02-28 15:30:00,52.0,45.0,30.14,WSW,253,26.0,26.0,77,0.00,,,0.00,0,Wunderground v.1.15,2013-02-28 23:30:00,
2013-02-28 15:40:00,51.8,45.2,30.14,WSW,241,15.0,15.0,78,0.00,,,0.00,0,Wunderground v.1.15,2013-02-28 23:40:00,
2013-02-28 15:50:00,51.9,45.3,30.14,West,259,17.0,17.0,78,0.00,,,0.00,0,Wunderground v.1.15,2013-02-28 23:50:00,
2013-02-28 16:00:00,51.8,44.8,30.15,WSW,241,17.0,17.0,77,0.00,,,0.00,0,Wunderground v.1.15,2013-03-01 00:00:00,
2013-02-28 16:10:00,51.7,44.7,30.15,WSW,254,14.0,14.0,77,0.00,,,0.00,0,Wunderground v.1.15,2013-03-01 00:10:00,
2013-02-28 16:20:00,51.4,44.8,30.15,WSW,251,8.0,8.0,78,0.00,,,0.00,0,Wunderground v.1.15,2013-03-01 00:20:00,
2013-02-28 16:30:00,51.4,45.1,30.16,WSW,248,6.0,6.0,79,0.00,,,0.00,0,Wunderground v.1.15,2013-03-01 00:30:00,
2013-02-28 16:40:00,51.3,45.0,30.15,WSW,239,8.0,8.0,79,0.00,,,0.00,0,Wunderground v.1.15,2013-03-01 00:40:00,
2013-02-28 16:50:00,51.4,45.1,30.16,SW,228,5.0,5.0,79,0.00,,,0.00,0,Wunderground v.1.15,2013-03-01 00:50:00,
2013-02-28 17:00:00,51.7,44.7,30.16,WSW,244,7.0,7.0,77,0.00,,,0.00,0,Wunderground v.1.15,2013-03-01 01:00:00,
2013-02-28 17:10:00,51.6,44.3,30.16,WSW,248,11.0,11.0,76,0.00,,,0.00,0,Wunderground v.1.15,2013-03-01 01:10:00,
2013-02-28 17:20:00,51.3,44.3,30.17,WSW,242,5.0,5.0,77,0.00,,,0.00,0,Wunderground v.1.15,2013-03-01 01:20:00,
2013-02-28 17:30:00,51.1,44.5,30.17,WSW,239,14.0,14.0,78,0.00,,,0.00,0,Wunderground v.1.15,2013-03-01 01:30:00,
2013-02-28 17:40:00,50.7,44.4,30.17,WSW,249,13.0,13.0,79,0.00,,,0.00,0,Wunderground v.1.15,2013-03-01 01:40:00,
2013-02-28 17:50:00,50.3,44.4,30.17,WSW,244,22.0,22.0,80,0.00,,,0.00,0,Wunderground v.1.15,2013-03-01 01:50:00,
2013-02-28 18:00:00,50.0,44.4,30.18,WSW,238,12.0,12.0,81,0.00,,,0.00,0,Wunderground v.1.15,2013-03-01 02:00:00,
2013-02-28 18:10:00,49.6,44.3,30.18,SW,231,7.0,7.0,82,0.00,,,0.00,0,Wunderground v.1.15,2013-03-01 02:10:00,
2013-02-28 18:20:00,49.2,44.3,30.19,WSW,245,10.0,10.0,83,0.00,,,0.00,0,Wunderground v.1.15,2013-03-01 02:20:00,
2013-02-28 18:30:00,49.4,44.1,30.19,SW,217,2.0,2.0,82,0.00,,,0.00,0,Wunderground v.1.15,2013-03-01 02:30:00,
2013-02-28 18:40:00,49.5,44.2,30.19,SW,236,8.0,8.0,82,0.00,,,0.00,0,Wunderground v.1.15,2013-03-01 02:40:00,
2013-02-28 18:50:00,49.2,43.9,30.19,SW,232,4.0,4.0,82,0.00,,,0.00,0,Wunderground v.1.15,2013-03-01 02:50:00,
2013-02-28 19:00:00,48.9,43.6,30.20,WSW,241,8.0,8.0,82,0.00,,,0.00,0,Wunderground v.1.15,2013-03-01 03:00:00,
2013-02-28 19:10:00,48.9,44.0,30.20,SW,234,7.0,7.0,83,0.00,,,0.00,0,Wunderground v.1.15,2013-03-01 03:10:00,
2013-02-28 19:20:00,48.8,44.2,30.20,WSW,237,9.0,9.0,84,0.00,,,0.00,0,Wunderground v.1.15,2013-03-01 03:20:00,
2013-02-28 19:30:00,48.4,43.8,30.20,West,261,1.0,1.0,84,0.00,,,0.00,0,Wunderground v.1.15,2013-03-01 03:30:00,
2013-02-28 19:40:00,47.8,43.5,30.20,WSW,256,5.0,5.0,85,0.00,,,0.00,0,Wunderground v.1.15,2013-03-01 03:40:00,
2013-02-28 19:50:00,47.5,43.8,30.20,NNW,332,10.0,10.0,87,0.00,,,0.00,0,Wunderground v.1.15,2013-03-01 03:50:00,
2013-02-28 20:00:00,47.0,43.6,30.20,West,260,6.0,6.0,88,0.00,,,0.00,0,Wunderground v.1.15,2013-03-01 04:00:00,
2013-02-28 20:10:00,46.9,43.2,30.20,SW,232,6.0,6.0,87,0.00,,,0.00,0,Wunderground v.1.15,2013-03-01 04:10:00,
2013-02-28 20:20:00,47.4,43.1,30.20,WSW,256,9.0,9.0,85,0.00,,,0.00,0,Wunderground v.1.15,2013-03-01 04:20:00,
2013-02-28 20:30:00,46.7,42.7,30.20,West,271,8.0,8.0,86,0.00,,,0.00,0,Wunderground v.1.15,2013-03-01 04:30:00,
2013-02-28 20:40:00,46.7,42.4,30.20,WSW,248,4.0,4.0,85,0.00,,,0.00,0,Wunderground v.1.15,2013-03-01 04:40:00,
2013-02-28 20:50:00,47.9,42.3,30.21,WSW,245,0.0,0.0,81,0.00,,,0.00,0,Wunderground v.1.15,2013-03-01 04:50:00,
2013-02-28 21:00:00,47.7,43.1,30.21,NNW,333,5.0,5.0,84,0.00,,,0.00,0,Wunderground v.1.15,2013-03-01 05:00:00,
2013-02-28 21:05:00,47.1,42.8,30.22,WNW,295,1.0,5.0,85,0.00,,,0.00,0,Wunderground v.1.15,2013-03-01 05:05:00,
2013-02-28 21:10:00,46.7,43.0,30.22,West,261,7.0,7.0,87,0.00,,,0.00,0,Wunderground v.1.15,2013-03-01 05:10:00,
2013-02-28 21:15:00,46.4,42.7,30.22,SW,232,1.0,7.0,87,0.00,,,0.00,0,Wunderground v.1.15,2013-03-01 05:15:00,
2013-02-28 21:20:00,46.4,42.7,30.22,SSW,207,2.0,2.0,87,0.00,,,0.00,0,Wunderground v.1.15,2013-03-01 05:20:00,
2013-02-28 21:30:00,46.4,42.4,30.22,WNW,282,5.0,5.0,86,0.00,,,0.00,0,Wunderground v.1.15,2013-03-01 05:30:00,
2013-02-28 21:40:00,46.4,42.4,30.22,NNE,18,3.0,3.0,86,0.00,,,0.00,0,Wunderground v.1.15,2013-03-01 05:40:00,
2013-02-28 21:50:00,46.2,42.2,30.22,West,262,8.0,8.0,86,0.00,,,0.00,0,Wunderground v.1.15,2013-03-01 05:50:00,
2013-02-28 22:00:00,46.6,42.6,30.22,WSW,248,11.0,11.0,86,0.00,,,0.00,0,Wunderground v.1.15,2013-03-01 06:00:00,
2013-02-28 22:05:00,46.7,42.4,30.23,WSW,251,12.0,12.0,85,0.00,,,0.00,0,Wunderground v.1.15,2013-03-01 06:05:00,
2013-02-28 22:10:00,46.6,42.6,30.23,WSW,252,12.0,12.0,86,0.00,,,0.00,0,Wunderground v.1.15,2013-03-01 06:10:00,
2013-02-28 22:20:00,46.5,41.9,30.23,West,262,9.0,9.0,84,0.00,,,0.00,0,Wunderground v.1.15,2013-03-01 06:20:00,
2013-02-28 22:30:00,46.5,41.3,30.22,WSW,237,7.0,7.0,82,0.00,,,0.00,0,Wunderground v.1.15,2013-03-01 06:30:00,
2013-02-28 22:40:00,46.2,41.0,30.23,WSW,245,8.0,8.0,82,0.00,,,0.00,0,Wunderground v.1.15,2013-03-01 06:40:00,
2013-02-28 22:50:00,46.5,40.3,30.23,WSW,245,8.0,8.0,79,0.00,,,0.00,0,Wunderground v.1.15,2013-03-01 06:50:00,
2013-02-28 23:00:00,46.5,40.3,30.23,SW,232,5.0,5.0,79,0.00,,,0.00,0,Wunderground v.1.15,2013-03-01 07:00:00,
2013-02-28 23:10:00,46.5,40.7,30.24,SSW,206,4.0,4.0,80,0.00,,,0.00,0,Wunderground v.1.15,2013-03-01 07:10:00,
2013-02-28 23:20:00,46.3,40.8,30.23,SSW,213,1.0,1.0,81,0.00,,,0.00,0,Wunderground v.1.15,2013-03-01 07:20:00,
2013-02-28 23:30:00,45.0,40.1,30.23,ESE,116,1.0,1.0,83,0.00,,,0.00,0,Wunderground v.1.15,2013-03-01 07:30:00,
2013-02-28 23:40:00,43.7,39.5,30.23,WNW,291,0.0,0.0,85,0.00,,,0.00,0,Wunderground v.1.15,2013-03-01 07:40:00,
2013-02-28 23:50:00,46.0,39.5,30.23,WSW,240,9.0,9.0,78,0.00,,,0.00,0,Wunderground v.1.15,2013-03-01 07:50:00,